createdAt,value
2019-01-08T00:02:36.810Z,42.83
2019-01-08T00:05:59.168Z,43.73
2019-01-08T00:09:21.220Z,43.30
2019-01-08T00:12:43.413Z,45.00
2019-01-08T00:16:05.804Z,40.00
2019-01-08T00:19:28.497Z,37.00
2019-01-08T00:22:51.044Z,37.23
2019-01-08T00:26:14.008Z,36.33
2019-01-08T00:29:36.624Z,37.47
2019-01-08T00:32:59.132Z,39.73
2019-01-08T00:36:21.960Z,35.57
2019-01-08T00:39:44.696Z,31.27
2019-01-08T00:43:06.824Z,35.03
2019-01-08T00:46:28.880Z,31.43
2019-01-08T00:49:51.178Z,33.77
2019-01-08T00:53:13.804Z,31.53
2019-01-08T00:56:36.136Z,28.97
2019-01-08T00:59:58.524Z,31.37
2019-01-08T01:03:20.925Z,27.53
2019-01-08T01:06:43.645Z,29.73
2019-01-08T01:10:06.681Z,27.60
2019-01-08T01:13:29.076Z,26.37
2019-01-08T01:16:51.524Z,24.97
2019-01-08T01:20:13.980Z,26.17
2019-01-08T01:23:36.768Z,24.00
2019-01-08T01:26:59.210Z,26.70
2019-01-08T01:30:21.721Z,25.27
2019-01-08T01:33:44.445Z,23.47
2019-01-08T01:37:06.687Z,23.77
2019-01-08T01:40:29.313Z,22.23
2019-01-08T01:43:52.012Z,22.40
2019-01-08T01:47:14.700Z,24.53
2019-01-08T01:50:37.388Z,26.00
2019-01-08T01:54:00.148Z,21.70
2019-01-08T01:57:22.876Z,23.10
2019-01-08T02:00:45.452Z,26.57
2019-01-08T02:04:08.081Z,23.57
2019-01-08T02:07:30.936Z,25.57
2019-01-08T02:10:53.406Z,24.47
2019-01-08T02:14:15.631Z,24.70
2019-01-08T02:17:38.086Z,26.50
2019-01-08T02:21:00.409Z,25.13
2019-01-08T02:24:22.866Z,28.97
2019-01-08T02:27:45.529Z,21.80
2019-01-08T02:31:07.901Z,24.87
2019-01-08T02:34:30.309Z,27.23
2019-01-08T02:37:52.651Z,25.87
2019-01-08T02:41:15.274Z,24.40
2019-01-08T02:44:37.919Z,24.73
2019-01-08T02:48:00.977Z,25.73
2019-01-08T02:51:23.391Z,29.73
2019-01-08T02:54:45.936Z,24.57
2019-01-08T02:58:08.551Z,23.53
2019-01-08T03:01:31.053Z,27.50
2019-01-08T03:04:53.861Z,24.23
2019-01-08T03:08:16.665Z,24.90
2019-01-08T03:11:39.120Z,21.93
2019-01-08T03:15:01.361Z,23.23
2019-01-08T03:18:24.251Z,24.27
2019-01-08T03:21:46.762Z,21.63
2019-01-08T03:25:09.393Z,26.70
2019-01-08T03:28:31.788Z,22.60
2019-01-08T03:31:54.326Z,22.70
2019-01-08T03:35:16.910Z,22.57
2019-01-08T03:38:39.369Z,21.53
2019-01-08T03:42:01.916Z,20.63
2019-01-08T03:45:24.299Z,20.20
2019-01-08T03:48:46.753Z,15.93
2019-01-08T03:52:09.244Z,16.67
2019-01-08T03:55:31.648Z,18.63
2019-01-08T03:58:54.063Z,16.03
2019-01-08T04:02:16.736Z,17.47
2019-01-08T04:05:39.162Z,15.33
2019-01-08T04:09:01.669Z,15.53
2019-01-08T04:12:23.964Z,18.53
2019-01-08T04:15:46.384Z,20.03
2019-01-08T04:19:09.054Z,17.37
2019-01-08T04:22:31.476Z,15.03
2019-01-08T04:25:54.246Z,15.53
2019-01-08T04:29:16.950Z,13.67
2019-01-08T04:32:39.361Z,20.83
2019-01-08T04:36:02.038Z,16.17
2019-01-08T04:39:25.017Z,15.27
2019-01-08T04:42:47.241Z,20.13
2019-01-08T04:46:09.412Z,20.60
2019-01-08T04:49:32.210Z,20.93
2019-01-08T04:52:55.036Z,18.83
2019-01-08T04:56:17.672Z,21.80
2019-01-08T04:59:40.563Z,14.87
2019-01-08T05:03:02.912Z,15.23
2019-01-08T05:06:25.241Z,16.10
2019-01-08T05:09:47.742Z,14.10
2019-01-08T05:13:10.090Z,10.93
2019-01-08T05:16:32.714Z,13.00
2019-01-08T05:19:54.986Z,15.20
2019-01-08T05:23:17.254Z,10.27
2019-01-08T05:26:39.684Z,21.20
2019-01-08T05:30:08.013Z,13.30
2019-01-08T05:33:26.526Z,14.73
2019-01-08T05:36:48.970Z,12.80
2019-01-08T05:40:11.241Z,12.67
2019-01-08T05:43:33.315Z,17.77
2019-01-08T05:46:55.777Z,20.17
2019-01-08T05:50:18.193Z,13.03
2019-01-08T05:53:40.956Z,20.00
2019-01-08T05:57:03.369Z,17.43
2019-01-08T06:00:26.239Z,15.63
2019-01-08T06:03:48.954Z,11.23
2019-01-08T06:07:11.429Z,13.87
2019-01-08T06:10:33.832Z,15.80
2019-01-08T06:13:56.553Z,17.00
2019-01-08T06:17:18.742Z,12.70
2019-01-08T06:20:41.241Z,11.93
2019-01-08T06:24:04.118Z,15.67
2019-01-08T06:27:26.789Z,17.63
2019-01-08T06:30:49.417Z,13.77
2019-01-08T06:34:12.118Z,19.03
2019-01-08T06:37:34.693Z,12.87
2019-01-08T06:40:57.684Z,19.33
2019-01-08T06:44:21.077Z,17.23
2019-01-08T06:47:43.748Z,19.07
2019-01-08T06:51:06.660Z,20.57
2019-01-08T06:54:29.380Z,18.73
2019-01-08T06:57:51.944Z,17.50
2019-01-08T07:01:14.746Z,16.43
2019-01-08T07:04:37.541Z,13.33
2019-01-08T07:08:00.214Z,17.23
2019-01-08T07:11:22.949Z,16.17
2019-01-08T07:14:45.389Z,13.27
2019-01-08T07:18:07.838Z,16.63
2019-01-08T07:21:30.029Z,14.97
2019-01-08T07:24:52.672Z,17.63
2019-01-08T07:28:15.320Z,19.70
2019-01-08T07:31:37.960Z,17.90
2019-01-08T07:35:00.396Z,15.07
2019-01-08T07:38:22.960Z,16.33
2019-01-08T07:41:45.692Z,16.60
2019-01-08T07:45:08.259Z,15.33
2019-01-08T07:48:30.910Z,14.33
2019-01-08T07:51:53.324Z,15.50
2019-01-08T07:55:16.006Z,12.67
2019-01-08T07:58:38.240Z,13.87
2019-01-08T08:02:00.380Z,15.37
2019-01-08T08:05:23.047Z,15.30
2019-01-08T08:08:45.692Z,17.93
2019-01-08T08:12:08.213Z,15.73
2019-01-08T08:15:30.796Z,17.20
2019-01-08T08:18:53.460Z,18.53
2019-01-08T08:22:15.750Z,16.27
2019-01-08T08:25:38.654Z,14.73
2019-01-08T08:29:01.267Z,15.10
2019-01-08T08:32:23.980Z,11.50
2019-01-08T08:35:46.683Z,14.00
2019-01-08T08:39:09.251Z,10.47
2019-01-08T08:42:34.478Z,11.03
2019-01-08T08:45:56.709Z,9.57
2019-01-08T08:49:19.601Z,13.90
2019-01-08T08:52:42.078Z,10.97
2019-01-08T08:56:04.698Z,12.10
2019-01-08T08:59:27.149Z,10.33
2019-01-08T09:02:49.803Z,12.90
2019-01-08T09:06:12.220Z,12.97
2019-01-08T09:09:34.757Z,13.03
2019-01-08T09:12:57.557Z,12.17
2019-01-08T09:16:20.042Z,18.40
2019-01-08T09:19:42.168Z,15.80
2019-01-08T09:23:04.665Z,13.53
2019-01-08T09:26:26.752Z,14.77
2019-01-08T09:29:49.285Z,13.23
2019-01-08T09:33:11.801Z,13.80
2019-01-08T09:36:34.450Z,11.90
2019-01-08T09:39:57.156Z,14.27
2019-01-08T09:43:19.625Z,16.00
2019-01-08T09:46:41.777Z,17.63
2019-01-08T09:50:05.141Z,15.37
2019-01-08T09:53:27.686Z,14.97
2019-01-08T09:56:50.212Z,10.43
2019-01-08T10:00:13.934Z,12.53
2019-01-08T10:03:36.773Z,11.53
2019-01-08T10:06:59.231Z,8.43
2019-01-08T10:10:21.584Z,10.37
2019-01-08T10:13:44.437Z,11.13
2019-01-08T10:17:07.162Z,12.30
2019-01-08T10:20:29.864Z,10.53
2019-01-08T10:23:52.237Z,9.17
2019-01-08T10:27:14.749Z,12.07
2019-01-08T10:30:37.589Z,11.70
2019-01-08T10:34:00.415Z,14.33
2019-01-08T10:37:22.923Z,8.30
2019-01-08T10:40:45.005Z,11.27
2019-01-08T10:44:07.433Z,12.63
2019-01-08T10:47:29.868Z,10.00
2019-01-08T10:50:52.547Z,10.40
2019-01-08T10:54:20.657Z,10.07
2019-01-08T10:57:43.237Z,12.83
2019-01-08T11:01:06.133Z,11.80
2019-01-08T11:04:29.028Z,7.63
2019-01-08T11:07:51.383Z,9.33
2019-01-08T11:11:13.805Z,10.37
2019-01-08T11:14:36.582Z,15.80
2019-01-08T11:18:00.095Z,9.60
2019-01-08T11:21:22.149Z,8.60
2019-01-08T11:24:44.862Z,10.57
2019-01-08T11:28:06.934Z,10.50
2019-01-08T11:31:29.557Z,8.00
2019-01-08T11:34:51.905Z,8.60
2019-01-08T11:38:14.523Z,9.33
2019-01-08T11:41:36.767Z,7.97
2019-01-08T11:44:59.166Z,5.50
2019-01-08T11:48:21.808Z,10.23
2019-01-08T11:51:43.924Z,11.10
2019-01-08T11:55:06.660Z,7.90
2019-01-08T11:58:29.438Z,5.17
2019-01-08T12:01:57.244Z,7.97
2019-01-08T12:05:16.344Z,8.00
2019-01-08T12:08:39.021Z,8.93
2019-01-08T12:12:01.168Z,10.13
2019-01-08T12:15:23.672Z,9.33
2019-01-08T12:18:47.054Z,9.83
2019-01-08T12:22:09.293Z,5.37
2019-01-08T12:25:31.865Z,6.00
2019-01-08T12:28:54.640Z,6.30
2019-01-08T12:32:17.418Z,5.80
2019-01-08T12:35:39.956Z,6.37
2019-01-08T12:39:02.609Z,6.87
2019-01-08T12:42:25.493Z,7.73
2019-01-08T12:45:48.364Z,9.37
2019-01-08T12:49:10.946Z,7.27
2019-01-08T12:52:33.579Z,63.60
2019-01-08T12:55:56.291Z,13.23
2019-01-08T12:59:18.798Z,10.33
2019-01-08T13:02:41.177Z,8.93
2019-01-08T13:06:03.579Z,14.97
2019-01-08T13:09:25.677Z,14.83
2019-01-08T13:12:48.412Z,12.20
2019-01-08T13:16:10.958Z,15.07
2019-01-08T13:19:33.407Z,14.53
2019-01-08T13:22:56.166Z,12.50
2019-01-08T13:26:18.332Z,17.77
2019-01-08T13:29:40.714Z,24.07
2019-01-08T13:33:03.422Z,13.63
2019-01-08T13:36:25.865Z,13.57
2019-01-08T13:39:48.527Z,9.80
2019-01-08T13:43:11.073Z,11.83
2019-01-08T13:46:33.629Z,8.13
2019-01-08T13:49:56.117Z,9.97
2019-01-08T13:53:18.538Z,8.57
2019-01-08T13:56:41.127Z,8.20
2019-01-08T14:00:03.769Z,8.23
2019-01-08T14:03:26.143Z,9.47
2019-01-08T14:06:48.711Z,8.40
2019-01-08T14:10:11.727Z,8.07
2019-01-08T14:13:34.509Z,7.30
2019-01-08T14:16:57.328Z,7.07
2019-01-08T14:20:19.981Z,9.80
2019-01-08T14:23:42.959Z,8.87
2019-01-08T14:27:11.757Z,8.77
2019-01-08T14:30:29.668Z,6.87
2019-01-08T14:33:52.334Z,8.40
2019-01-08T14:37:14.912Z,10.87
2019-01-08T14:40:37.901Z,6.27
2019-01-08T14:44:00.278Z,10.60
2019-01-08T14:47:22.753Z,11.40
2019-01-08T14:50:45.153Z,7.77
2019-01-08T14:54:07.842Z,10.43
2019-01-08T14:57:30.454Z,7.87
2019-01-08T15:00:52.635Z,9.60
2019-01-08T15:04:15.451Z,10.23
2019-01-08T15:07:37.832Z,11.83
2019-01-08T15:11:00.619Z,7.43
2019-01-08T15:14:23.318Z,11.13
2019-01-08T15:17:45.792Z,9.20
2019-01-08T15:21:08.193Z,11.47
2019-01-08T15:24:31.121Z,8.33
2019-01-08T15:27:53.802Z,14.27
2019-01-08T15:31:16.836Z,13.83
2019-01-08T15:34:39.753Z,13.30
2019-01-08T15:38:02.181Z,14.53
2019-01-08T15:41:24.582Z,15.37
2019-01-08T15:44:47.281Z,11.97
2019-01-08T15:48:09.388Z,11.93
2019-01-08T15:51:31.797Z,18.27
2019-01-08T15:54:54.517Z,22.50
2019-01-08T15:58:16.985Z,22.63
2019-01-08T16:01:39.777Z,20.10
2019-01-08T16:05:02.022Z,12.57
2019-01-08T16:08:24.616Z,16.63
2019-01-08T16:11:47.717Z,13.80
2019-01-08T16:15:10.348Z,11.17
2019-01-08T16:18:33.374Z,11.73
2019-01-08T16:21:55.725Z,14.50
2019-01-08T16:25:18.350Z,13.40
2019-01-08T16:28:41.112Z,18.77
2019-01-08T16:32:03.662Z,20.43
2019-01-08T16:35:26.033Z,12.27
2019-01-08T16:38:48.640Z,15.13
2019-01-08T16:42:10.729Z,13.40
2019-01-08T16:45:32.773Z,17.37
2019-01-08T16:48:55.571Z,11.97
2019-01-08T16:52:17.944Z,8.00
2019-01-08T16:55:40.562Z,9.10
2019-01-08T16:59:03.044Z,11.50
2019-01-08T17:02:25.461Z,13.07
2019-01-08T17:05:48.249Z,11.03
2019-01-08T17:09:10.438Z,10.53
2019-01-08T17:12:33.046Z,10.00
2019-01-08T17:15:55.773Z,10.27
2019-01-08T17:19:18.225Z,9.17
2019-01-08T17:22:40.932Z,9.53
2019-01-08T17:26:03.450Z,11.27
2019-01-08T17:29:25.877Z,8.83
2019-01-08T17:32:48.430Z,6.53
2019-01-08T17:36:10.721Z,6.57
2019-01-08T17:39:33.570Z,11.13
2019-01-08T17:42:55.834Z,9.03
2019-01-08T17:46:18.386Z,8.67
2019-01-08T17:49:40.995Z,10.60
2019-01-08T17:53:03.697Z,11.93
2019-01-08T17:56:26.251Z,8.50
2019-01-08T17:59:48.952Z,8.03
2019-01-08T18:03:11.830Z,7.80
2019-01-08T18:06:34.633Z,7.70
2019-01-08T18:09:57.244Z,6.60
2019-01-08T18:13:19.277Z,6.43
2019-01-08T18:16:41.721Z,7.40
2019-01-08T18:20:04.710Z,7.43
2019-01-08T18:23:27.488Z,7.63
2019-01-08T18:26:49.921Z,13.83
2019-01-08T18:30:12.417Z,7.67
2019-01-08T18:33:34.821Z,13.90
2019-01-08T18:36:56.976Z,20.80
2019-01-08T18:40:19.556Z,12.53
2019-01-08T18:43:42.361Z,12.60
2019-01-08T18:47:05.063Z,8.10
2019-01-08T18:50:27.580Z,6.27
2019-01-08T18:53:50.053Z,9.70
2019-01-08T18:57:12.742Z,8.67
2019-01-08T19:00:35.261Z,7.43
2019-01-08T19:03:59.976Z,8.90
2019-01-08T19:07:21.904Z,7.87
2019-01-08T19:10:44.665Z,9.50
2019-01-08T19:14:06.949Z,10.53
2019-01-08T19:17:29.553Z,7.53
2019-01-08T19:20:51.987Z,11.40
2019-01-08T19:24:15.295Z,8.03
2019-01-08T19:27:38.085Z,7.27
2019-01-08T19:31:00.693Z,7.40
2019-01-08T19:34:23.553Z,8.27
2019-01-08T19:37:46.110Z,7.53
2019-01-08T19:41:08.830Z,7.07
2019-01-08T19:44:31.595Z,5.13
2019-01-08T19:47:54.164Z,9.87
2019-01-08T19:51:16.400Z,8.77
2019-01-08T19:54:38.844Z,6.53
2019-01-08T19:58:01.336Z,4.23
2019-01-08T20:01:23.985Z,4.50
2019-01-08T20:04:46.521Z,5.93
2019-01-08T20:08:09.225Z,8.60
2019-01-08T20:11:31.544Z,6.73
2019-01-08T20:14:53.588Z,6.70
2019-01-08T20:18:16.053Z,8.47
2019-01-08T20:21:38.782Z,9.03
2019-01-08T20:25:01.434Z,6.83
2019-01-08T20:28:23.746Z,7.60
2019-01-08T20:31:45.867Z,7.83
2019-01-08T20:35:10.210Z,5.43
2019-01-08T20:38:32.546Z,10.63
2019-01-08T20:41:54.745Z,7.80
2019-01-08T20:45:17.135Z,7.77
2019-01-08T20:48:39.593Z,7.93
2019-01-08T20:52:02.157Z,5.27
2019-01-08T20:55:24.325Z,7.83
2019-01-08T20:58:46.464Z,10.20
2019-01-08T21:02:09.038Z,8.73
2019-01-08T21:05:31.728Z,10.20
2019-01-08T21:08:54.352Z,8.40
2019-01-08T21:12:16.906Z,5.47
2019-01-08T21:15:39.345Z,6.43
2019-01-08T21:19:02.126Z,4.87
2019-01-08T21:22:25.430Z,5.50
2019-01-08T21:25:47.648Z,8.10
2019-01-08T21:29:10.017Z,8.33
2019-01-08T21:32:32.368Z,8.17
2019-01-08T21:35:55.053Z,8.40
2019-01-08T21:39:17.587Z,10.20
2019-01-08T21:42:40.002Z,5.40
2019-01-08T21:46:02.655Z,5.80
2019-01-08T21:49:25.065Z,6.60
2019-01-08T21:52:47.350Z,8.33
2019-01-08T21:56:09.477Z,6.20
2019-01-08T21:59:31.809Z,7.60
2019-01-08T22:02:54.637Z,6.57
2019-01-08T22:06:16.965Z,5.03
2019-01-08T22:09:39.621Z,7.23
2019-01-08T22:13:02.009Z,4.93
2019-01-08T22:16:34.960Z,5.77
2019-01-08T22:19:57.788Z,7.10
2019-01-08T22:23:20.559Z,6.47
2019-01-08T22:26:43.335Z,5.23
2019-01-08T22:30:06.576Z,5.33
2019-01-08T22:33:29.312Z,4.00
2019-01-08T22:36:51.796Z,3.90
2019-01-08T22:40:13.989Z,3.03
2019-01-08T22:43:36.592Z,5.10
2019-01-08T22:46:59.016Z,5.43
2019-01-08T22:50:21.368Z,6.10
2019-01-08T22:53:44.178Z,3.70
2019-01-08T22:57:07.268Z,2.40
2019-01-08T23:00:48.917Z,4.73
2019-01-08T23:04:12.586Z,4.67
2019-01-08T23:07:34.576Z,5.13
2019-01-08T23:10:56.641Z,5.60
2019-01-08T23:14:19.443Z,4.33
2019-01-08T23:17:41.640Z,11.83
2019-01-08T23:21:03.908Z,8.67
2019-01-08T23:24:26.089Z,6.33
2019-01-08T23:27:48.730Z,3.97
2019-01-08T23:31:11.173Z,3.40
2019-01-08T23:34:33.657Z,2.37
2019-01-08T23:37:56.248Z,2.93
2019-01-08T23:41:18.343Z,2.83
2019-01-08T23:44:40.913Z,2.77
2019-01-08T23:48:03.512Z,3.00
2019-01-08T23:51:25.708Z,2.80
2019-01-08T23:54:50.773Z,1.97
2019-01-08T23:58:13.711Z,2.27
